createdAt,value
2018-05-10T00:01:05.645Z,8.80
2018-05-10T00:03:33.941Z,5.70
2018-05-10T00:06:02.570Z,14.03
2018-05-10T00:08:30.973Z,7.13
2018-05-10T00:10:59.000Z,8.60
2018-05-10T00:13:26.390Z,7.10
2018-05-10T00:15:55.684Z,12.03
2018-05-10T00:18:23.180Z,7.90
2018-05-10T00:20:50.574Z,10.23
2018-05-10T00:23:17.907Z,6.97
2018-05-10T00:25:45.213Z,9.10
2018-05-10T00:28:12.591Z,7.57
2018-05-10T00:30:39.899Z,7.10
2018-05-10T00:33:07.258Z,8.83
2018-05-10T00:35:34.669Z,6.90
2018-05-10T00:38:02.228Z,7.80
2018-05-10T00:40:29.594Z,6.33
2018-05-10T00:42:56.968Z,5.23
2018-05-10T00:45:24.381Z,7.37
2018-05-10T00:47:51.675Z,7.57
2018-05-10T00:50:19.027Z,7.00
2018-05-10T00:52:46.334Z,6.03
2018-05-10T00:55:13.648Z,5.40
2018-05-10T00:57:40.954Z,7.73
2018-05-10T01:00:08.426Z,6.60
2018-05-10T01:02:35.758Z,5.60
2018-05-10T01:05:03.226Z,7.47
2018-05-10T01:07:30.859Z,9.17
2018-05-10T01:09:58.406Z,5.10
2018-05-10T01:12:25.726Z,4.97
2018-05-10T01:14:53.119Z,6.00
2018-05-10T01:17:20.879Z,16.47
2018-05-10T01:19:48.154Z,8.23
2018-05-10T01:22:15.487Z,7.13
2018-05-10T01:24:42.773Z,6.30
2018-05-10T01:27:10.075Z,6.70
2018-05-10T01:29:37.466Z,6.93
2018-05-10T01:32:04.960Z,14.73
2018-05-10T01:34:32.698Z,7.20
2018-05-10T01:37:00.549Z,5.03
2018-05-10T01:39:27.805Z,6.43
2018-05-10T01:41:55.210Z,8.87
2018-05-10T01:44:22.670Z,7.20
2018-05-10T01:46:49.948Z,8.03
2018-05-10T01:49:17.317Z,8.00
2018-05-10T01:51:44.657Z,6.77
2018-05-10T01:54:11.982Z,6.43
2018-05-10T01:56:40.289Z,6.03
2018-05-10T01:59:07.709Z,14.03
2018-05-10T02:01:35.319Z,8.17
2018-05-10T02:04:03.493Z,7.20
2018-05-10T02:06:30.973Z,8.23
2018-05-10T02:08:58.270Z,5.87
2018-05-10T02:11:25.596Z,7.30
2018-05-10T02:13:53.118Z,8.40
2018-05-10T02:16:20.423Z,6.60
2018-05-10T02:18:47.742Z,7.03
2018-05-10T02:21:15.041Z,9.83
2018-05-10T02:23:42.318Z,7.70
2018-05-10T02:26:09.674Z,5.87
2018-05-10T02:28:37.144Z,8.33
2018-05-10T02:31:04.624Z,10.17
2018-05-10T02:33:32.341Z,7.33
2018-05-10T02:35:59.913Z,5.57
2018-05-10T02:38:27.241Z,7.80
2018-05-10T02:40:54.581Z,5.57
2018-05-10T02:43:21.969Z,6.20
2018-05-10T02:45:49.320Z,11.97
2018-05-10T02:48:16.659Z,6.80
2018-05-10T02:50:43.956Z,6.80
2018-05-10T02:53:11.254Z,5.97
2018-05-10T02:55:38.573Z,4.93
2018-05-10T02:58:06.100Z,7.23
2018-05-10T03:00:33.563Z,6.90
2018-05-10T03:03:01.101Z,9.80
2018-05-10T03:05:28.477Z,14.20
2018-05-10T03:07:55.821Z,7.87
2018-05-10T03:10:23.192Z,9.23
2018-05-10T03:12:50.543Z,7.43
2018-05-10T03:15:18.039Z,8.53
2018-05-10T03:17:45.383Z,10.20
2018-05-10T03:20:12.686Z,4.50
2018-05-10T03:22:39.958Z,5.23
2018-05-10T03:25:07.437Z,12.13
2018-05-10T03:27:34.902Z,7.50
2018-05-10T03:30:02.823Z,9.13
2018-05-10T03:32:30.356Z,7.30
2018-05-10T03:34:57.635Z,7.13
2018-05-10T03:37:25.017Z,5.90
2018-05-10T03:39:52.280Z,8.07
2018-05-10T03:42:19.564Z,8.70
2018-05-10T03:44:46.868Z,9.50
2018-05-10T03:47:14.154Z,5.10
2018-05-10T03:49:41.468Z,6.10
2018-05-10T03:52:09.087Z,5.73
2018-05-10T03:54:36.613Z,6.30
2018-05-10T03:57:04.312Z,5.77
2018-05-10T03:59:32.188Z,6.23
2018-05-10T04:02:03.030Z,6.53
2018-05-10T04:04:36.865Z,9.10
2018-05-10T04:07:10.573Z,4.57
2018-05-10T04:09:44.221Z,5.27
2018-05-10T04:12:11.636Z,5.97
2018-05-10T04:14:38.966Z,6.00
2018-05-10T04:17:06.347Z,6.10
2018-05-10T04:19:33.812Z,6.70
2018-05-10T04:22:01.275Z,4.23
2018-05-10T04:24:28.710Z,7.03
2018-05-10T04:26:56.043Z,5.80
2018-05-10T04:29:23.615Z,5.87
2018-05-10T04:31:50.979Z,5.40
2018-05-10T04:34:18.455Z,9.20
2018-05-10T04:36:45.782Z,5.20
2018-05-10T04:39:13.115Z,9.20
2018-05-10T04:41:40.475Z,4.53
2018-05-10T04:44:07.970Z,11.10
2018-05-10T04:46:35.405Z,5.50
2018-05-10T04:49:02.884Z,4.03
2018-05-10T04:51:30.525Z,9.03
2018-05-10T04:53:58.094Z,6.20
2018-05-10T04:56:25.553Z,6.33
2018-05-10T04:58:53.013Z,4.30
2018-05-10T05:01:20.331Z,3.93
2018-05-10T05:03:47.634Z,9.63
2018-05-10T05:06:21.216Z,5.30
2018-05-10T05:08:48.802Z,3.50
2018-05-10T05:11:16.432Z,5.80
2018-05-10T05:13:44.020Z,4.93
2018-05-10T05:16:11.467Z,5.00
2018-05-10T05:18:39.090Z,6.57
2018-05-10T05:21:07.912Z,7.53
2018-05-10T05:23:36.197Z,4.43
2018-05-10T05:26:04.810Z,8.27
2018-05-10T05:28:32.535Z,11.83
2018-05-10T05:31:00.152Z,7.23
2018-05-10T05:33:27.794Z,7.07
2018-05-10T05:35:55.325Z,5.43
2018-05-10T05:38:22.711Z,6.53
2018-05-10T05:40:50.099Z,3.80
2018-05-10T05:43:17.665Z,4.30
2018-05-10T05:45:44.906Z,8.20
2018-05-10T05:48:13.413Z,6.77
2018-05-10T05:50:41.295Z,5.90
2018-05-10T05:53:08.943Z,7.97
2018-05-10T05:55:36.778Z,4.40
2018-05-10T05:58:04.264Z,4.13
2018-05-10T06:00:33.276Z,3.70
2018-05-10T06:03:01.517Z,10.50
2018-05-10T06:05:29.694Z,8.00
2018-05-10T06:07:57.795Z,3.30
2018-05-10T06:10:25.297Z,3.63
2018-05-10T06:15:26.031Z,5.70
2018-05-10T06:17:53.872Z,3.97
2018-05-10T06:22:57.373Z,3.70
2018-05-10T06:25:25.198Z,4.13
2018-05-10T06:27:52.647Z,4.30
2018-05-10T06:30:21.171Z,3.33
2018-05-10T06:32:52.483Z,3.13
2018-05-10T06:35:19.959Z,3.60
2018-05-10T06:37:47.470Z,4.23
2018-05-10T06:40:14.976Z,4.33
2018-05-10T06:42:43.406Z,5.30
2018-05-10T06:45:10.800Z,6.93
2018-05-10T06:47:38.339Z,4.70
2018-05-10T06:50:08.017Z,5.30
2018-05-10T06:52:35.552Z,4.73
2018-05-10T06:55:03.199Z,4.10
2018-05-10T06:57:30.637Z,4.63
2018-05-10T07:00:02.836Z,3.40
2018-05-10T07:02:30.890Z,4.13
2018-05-10T07:04:58.807Z,7.10
2018-05-10T07:07:26.161Z,4.33
2018-05-10T07:09:54.718Z,4.07
2018-05-10T07:12:23.408Z,2.50
2018-05-10T07:14:50.946Z,5.10
2018-05-10T07:17:18.417Z,4.80
2018-05-10T07:19:45.802Z,12.60
2018-05-10T07:22:13.544Z,4.47
2018-05-10T07:24:42.147Z,2.83
2018-05-10T07:27:09.843Z,3.33
2018-05-10T07:29:37.679Z,10.40
2018-05-10T07:32:06.651Z,3.33
2018-05-10T07:34:34.379Z,5.87
2018-05-10T07:37:01.787Z,5.47
2018-05-10T07:39:30.043Z,3.80
2018-05-10T07:41:57.730Z,4.20
2018-05-10T07:44:25.003Z,5.53
2018-05-10T07:59:44.629Z,9.97
2018-05-10T08:07:27.318Z,4.27
2018-05-10T08:09:54.609Z,7.27
2018-05-10T08:12:21.912Z,4.50
2018-05-10T08:14:50.192Z,10.90
2018-05-10T08:17:17.581Z,4.80
2018-05-10T08:22:17.114Z,8.27
2018-05-10T08:24:46.051Z,6.17
2018-05-10T08:27:13.383Z,4.83
2018-05-10T08:29:41.085Z,5.70
2018-05-10T08:32:08.541Z,10.87
2018-05-10T08:34:36.088Z,6.53
2018-05-10T08:37:05.285Z,6.83
2018-05-10T08:44:40.609Z,5.07
2018-05-10T08:47:08.367Z,8.60
2018-05-10T08:49:35.995Z,5.90
2018-05-10T08:52:03.695Z,8.77
2018-05-10T08:54:31.913Z,7.80
2018-05-10T08:56:59.378Z,5.30
2018-05-10T08:59:26.680Z,6.80
2018-05-10T09:01:54.111Z,7.23
2018-05-10T09:04:21.717Z,11.80
2018-05-10T09:06:49.128Z,4.30
2018-05-10T09:09:16.518Z,13.10
2018-05-10T09:16:49.110Z,6.80
2018-05-10T09:19:17.394Z,7.17
2018-05-10T09:21:44.768Z,7.53
2018-05-10T09:26:44.265Z,7.53
2018-05-10T09:29:11.618Z,4.70
2018-05-10T09:31:39.403Z,10.03
2018-05-10T09:34:07.045Z,4.30
2018-05-10T09:41:38.278Z,2.40
2018-05-10T09:46:39.913Z,4.57
2018-05-10T09:49:07.676Z,4.23
2018-05-10T09:54:09.149Z,6.30
2018-05-10T09:56:41.463Z,2.93
2018-05-10T10:01:40.906Z,5.63
2018-05-10T10:06:45.469Z,4.57
2018-05-10T10:09:12.878Z,4.03
2018-05-10T10:11:40.350Z,2.93
2018-05-10T10:14:07.802Z,5.67
2018-05-10T10:19:07.543Z,4.23
2018-05-10T10:21:36.475Z,4.10
2018-05-10T10:24:05.473Z,6.33
2018-05-10T10:26:33.673Z,6.23
2018-05-10T10:29:02.192Z,3.87
2018-05-10T10:31:29.738Z,5.03
2018-05-10T10:33:57.185Z,5.87
2018-05-10T10:36:24.514Z,6.00
2018-05-10T10:38:51.811Z,3.40
2018-05-10T10:41:19.802Z,3.57
2018-05-10T10:43:48.080Z,3.33
2018-05-10T10:46:15.542Z,5.10
2018-05-10T10:48:43.322Z,9.30
2018-05-10T10:53:43.392Z,6.43
2018-05-10T10:56:11.135Z,4.60
2018-05-10T10:58:38.601Z,4.23
2018-05-10T11:01:06.527Z,7.30
2018-05-10T11:06:05.786Z,4.47
2018-05-10T11:08:33.839Z,10.20
2018-05-10T11:11:01.455Z,4.70
2018-05-10T11:13:34.098Z,5.50
2018-05-10T11:18:38.976Z,6.40
2018-05-10T11:21:07.268Z,6.33
2018-05-10T11:23:34.701Z,5.80
2018-05-10T11:26:02.804Z,4.00
2018-05-10T11:28:31.511Z,6.37
2018-05-10T11:30:59.187Z,9.53
2018-05-10T11:33:27.180Z,7.50
2018-05-10T11:35:59.034Z,4.90
2018-05-10T11:40:58.863Z,4.87
2018-05-10T11:43:26.780Z,5.47
2018-05-10T11:45:54.184Z,7.97
2018-05-10T11:48:21.639Z,4.50
2018-05-10T11:50:49.130Z,6.93
2018-05-10T11:53:16.467Z,9.73
2018-05-10T11:55:43.817Z,4.60
2018-05-10T11:58:11.226Z,4.33
2018-05-10T12:00:38.662Z,7.47
2018-05-10T12:03:06.269Z,5.77
2018-05-10T12:05:33.868Z,7.27
2018-05-10T12:08:01.652Z,7.23
2018-05-10T12:10:30.178Z,6.03
2018-05-10T12:12:57.550Z,19.73
2018-05-10T12:15:25.716Z,6.50
2018-05-10T12:17:53.048Z,8.50
2018-05-10T12:20:20.511Z,5.23
2018-05-10T12:22:47.864Z,6.80
2018-05-10T12:25:15.296Z,5.87
2018-05-10T12:27:42.678Z,9.33
2018-05-10T12:30:10.141Z,13.03
2018-05-10T12:32:37.551Z,17.13
2018-05-10T12:35:05.088Z,11.30
2018-05-10T12:37:32.536Z,5.37
2018-05-10T12:40:01.115Z,5.83
2018-05-10T12:42:28.589Z,9.67
2018-05-10T12:44:57.014Z,5.40
2018-05-10T12:47:25.289Z,5.47
2018-05-10T12:49:52.842Z,5.83
2018-05-10T12:52:20.263Z,5.50
2018-05-10T12:54:47.593Z,4.03
2018-05-10T12:57:15.002Z,7.10
2018-05-10T12:59:42.626Z,3.83
2018-05-10T13:02:10.135Z,5.03
2018-05-10T13:04:37.964Z,5.10
2018-05-10T13:07:06.572Z,10.20
2018-05-10T13:09:34.325Z,5.30
2018-05-10T13:12:01.977Z,5.47
2018-05-10T13:14:29.394Z,3.40
2018-05-10T13:16:57.781Z,6.47
2018-05-10T13:19:25.255Z,3.50
2018-05-10T13:21:54.441Z,4.23
2018-05-10T13:29:27.486Z,6.50
2018-05-10T13:31:54.875Z,3.77
2018-05-10T13:34:24.061Z,3.80
2018-05-10T13:36:51.465Z,3.00
2018-05-10T13:39:18.893Z,3.67
2018-05-10T13:41:46.279Z,4.27
2018-05-10T13:44:13.876Z,3.87
2018-05-10T13:46:41.226Z,4.70
2018-05-10T13:49:09.251Z,3.20
2018-05-10T13:51:36.875Z,3.80
2018-05-10T13:54:08.049Z,3.33
2018-05-10T13:59:07.329Z,2.30
2018-05-10T14:01:34.797Z,6.13
2018-05-10T14:04:02.243Z,2.23
2018-05-10T14:06:29.673Z,8.47
2018-05-10T14:08:57.183Z,6.63
2018-05-10T14:11:24.669Z,2.93
2018-05-10T14:13:51.963Z,3.73
2018-05-10T14:16:19.350Z,3.00
2018-05-10T14:18:46.783Z,3.80
2018-05-10T14:21:14.099Z,5.73
2018-05-10T14:23:41.942Z,2.60
2018-05-10T14:26:10.428Z,2.90
2018-05-10T14:31:10.008Z,4.00
2018-05-10T14:36:16.052Z,2.80
2018-05-10T14:46:22.469Z,6.23
2018-05-10T14:48:51.550Z,5.87
2018-05-10T14:51:18.890Z,2.47
2018-05-10T14:53:46.255Z,2.83
2018-05-10T14:59:17.181Z,2.50
2018-05-10T15:09:52.257Z,2.33
2018-05-10T15:48:18.851Z,1.90
2018-05-10T15:50:50.996Z,3.77
2018-05-10T15:55:50.293Z,6.80
2018-05-10T15:58:19.192Z,6.83
2018-05-10T16:00:46.541Z,6.00
2018-05-10T16:05:45.670Z,1.80
2018-05-10T16:13:17.646Z,2.20
2018-05-10T16:15:45.144Z,2.40
2018-05-10T16:20:48.125Z,3.50
2018-05-10T16:23:15.530Z,5.70
2018-05-10T16:25:43.676Z,2.83
2018-05-10T16:28:12.035Z,2.90
2018-05-10T16:30:40.278Z,3.77
2018-05-10T16:38:12.283Z,2.50
2018-05-10T16:40:39.793Z,2.60
2018-05-10T16:43:07.288Z,2.33
2018-05-10T16:45:35.546Z,1.30
2018-05-10T16:57:02.728Z,2.40
2018-05-10T17:08:14.811Z,3.00
2018-05-10T17:13:22.183Z,1.47
2018-05-10T17:18:53.787Z,3.00
2018-05-10T17:24:49.388Z,4.33
2018-05-10T17:29:48.647Z,5.03
2018-05-10T17:32:16.216Z,2.60
2018-05-10T17:34:44.192Z,3.97
2018-05-10T17:37:11.812Z,2.53
2018-05-10T17:39:39.304Z,6.40
2018-05-10T17:42:07.654Z,3.20
2018-05-10T17:52:25.365Z,4.07
2018-05-10T18:00:02.763Z,7.50
2018-05-10T18:02:30.477Z,3.73
2018-05-10T18:07:33.521Z,2.13
2018-05-10T18:12:40.516Z,2.67
2018-05-10T18:15:08.071Z,3.03
2018-05-10T18:20:09.313Z,2.30
2018-05-10T18:22:37.033Z,2.80
2018-05-10T18:25:05.037Z,3.70
2018-05-10T18:27:34.142Z,3.63
2018-05-10T18:35:34.588Z,3.13
2018-05-10T18:43:06.256Z,3.35
2018-05-10T18:45:34.487Z,2.83
2018-05-10T18:48:01.859Z,2.10
2018-05-10T18:50:31.536Z,4.20
2018-05-10T18:52:59.082Z,4.37
2018-05-10T18:55:26.571Z,2.70
2018-05-10T19:03:02.020Z,7.63
2018-05-10T19:05:29.422Z,2.90
2018-05-10T19:10:34.747Z,4.60
2018-05-10T19:13:02.219Z,8.00
2018-05-10T19:15:29.646Z,5.20
2018-05-10T19:17:56.968Z,5.30
2018-05-10T19:22:55.806Z,5.50
2018-05-10T19:25:23.100Z,10.23
2018-05-10T19:27:50.446Z,6.93
2018-05-10T19:30:17.773Z,10.17
2018-05-10T19:32:45.138Z,13.13
2018-05-10T19:35:13.366Z,5.70
2018-05-10T19:37:40.792Z,6.53
2018-05-10T19:40:08.066Z,6.43
2018-05-10T19:42:35.522Z,4.83
2018-05-10T19:45:03.159Z,6.67
2018-05-10T19:47:30.541Z,4.87
2018-05-10T19:49:58.855Z,5.67
2018-05-10T19:52:26.414Z,6.30
2018-05-10T19:57:32.394Z,4.27
2018-05-10T19:59:59.746Z,4.77
2018-05-10T20:02:27.226Z,11.23
2018-05-10T20:04:54.611Z,5.00
2018-05-10T20:07:23.410Z,7.87
2018-05-10T20:09:50.740Z,6.97
2018-05-10T20:12:18.183Z,5.90
2018-05-10T20:14:45.471Z,6.70
2018-05-10T20:17:12.750Z,7.70
2018-05-10T20:19:40.430Z,12.03
2018-05-10T20:22:07.844Z,7.87
2018-05-10T20:24:35.275Z,8.73
2018-05-10T20:27:02.686Z,8.00
2018-05-10T20:29:31.244Z,10.60
2018-05-10T20:31:58.703Z,9.60
2018-05-10T20:34:26.317Z,13.43
2018-05-10T20:36:53.928Z,11.03
2018-05-10T20:39:21.277Z,15.80
2018-05-10T20:41:48.556Z,9.57
2018-05-10T20:44:15.867Z,8.40
2018-05-10T20:46:43.183Z,11.33
2018-05-10T20:49:10.498Z,9.33
2018-05-10T20:51:37.981Z,13.10
2018-05-10T20:54:05.416Z,15.10
2018-05-10T20:56:33.122Z,13.67
2018-05-10T20:59:00.442Z,11.37
2018-05-10T21:01:27.844Z,11.07
2018-05-10T21:03:55.309Z,13.23
2018-05-10T21:06:22.995Z,15.80
2018-05-10T21:08:50.702Z,14.03
2018-05-10T21:11:18.017Z,14.60
2018-05-10T21:13:45.351Z,12.83
2018-05-10T21:16:12.753Z,15.37
2018-05-10T21:18:41.092Z,12.47
2018-05-10T21:21:08.785Z,12.10
2018-05-10T21:23:36.258Z,11.43
2018-05-10T21:26:03.901Z,23.83
2018-05-10T21:28:31.349Z,16.17
2018-05-10T21:30:58.761Z,11.30
2018-05-10T21:33:26.124Z,11.70
2018-05-10T21:35:53.636Z,14.00
2018-05-10T21:38:22.691Z,12.33
2018-05-10T21:40:50.157Z,14.73
2018-05-10T21:43:19.303Z,11.80
2018-05-10T21:45:46.661Z,12.33
2018-05-10T21:50:45.877Z,12.43
2018-05-10T21:53:13.246Z,9.77
2018-05-10T21:55:40.986Z,13.43
2018-05-10T22:00:40.178Z,8.87
2018-05-10T22:03:07.648Z,10.07
2018-05-10T22:05:35.150Z,10.03
2018-05-10T22:08:02.874Z,13.43
2018-05-10T22:10:31.317Z,13.57
2018-05-10T22:12:58.622Z,11.30
2018-05-10T22:15:25.954Z,14.67
2018-05-10T22:17:53.230Z,13.83
2018-05-10T22:20:20.648Z,12.00
2018-05-10T22:22:48.162Z,14.13
2018-05-10T22:25:15.500Z,9.93
2018-05-10T22:27:42.876Z,9.27
2018-05-10T22:30:10.400Z,9.73
2018-05-10T22:32:37.734Z,11.80
2018-05-10T22:35:05.486Z,13.50
2018-05-10T22:37:33.454Z,13.07
2018-05-10T22:40:01.391Z,8.77
2018-05-10T22:42:29.380Z,10.67
2018-05-10T22:44:56.993Z,11.63
2018-05-10T22:47:24.325Z,14.80
2018-05-10T22:49:51.717Z,10.10
2018-05-10T22:52:19.056Z,9.77
2018-05-10T22:54:46.356Z,12.80
2018-05-10T22:57:13.654Z,10.80
2018-05-10T22:59:41.013Z,14.20
2018-05-10T23:02:08.334Z,12.73
2018-05-10T23:04:35.798Z,9.33
2018-05-10T23:07:03.162Z,11.33
2018-05-10T23:09:30.472Z,9.63
2018-05-10T23:11:57.925Z,17.10
2018-05-10T23:14:25.281Z,10.33
2018-05-10T23:16:52.623Z,9.33
2018-05-10T23:19:20.364Z,10.10
2018-05-10T23:21:47.637Z,12.20
2018-05-10T23:24:14.919Z,14.67
2018-05-10T23:26:43.115Z,14.57
2018-05-10T23:29:10.397Z,16.00
2018-05-10T23:31:37.871Z,14.80
2018-05-10T23:34:05.370Z,12.90
2018-05-10T23:36:32.926Z,11.43
2018-05-10T23:39:00.378Z,21.33
2018-05-10T23:41:27.698Z,13.87
2018-05-10T23:43:55.008Z,10.40
2018-05-10T23:46:22.400Z,12.90
2018-05-10T23:48:49.688Z,23.37
2018-05-10T23:51:16.980Z,17.10
2018-05-10T23:53:44.284Z,10.80
2018-05-10T23:56:11.566Z,11.77
2018-05-10T23:58:38.901Z,11.57
